首页
METAR-TAF:

METAR-TAF

机场 :

格罗塞托, 意大利

纬度: 42-45N, 经度: 011-04E, 海拔: 5米

当前天气观测

该预报发布于1小时和17分钟前的05:55 UTC
风速5节,风向东转东南
温度 18°C
湿度 88%
气压 1016 hPa
能见度10公里或以上
少量云层高于1800英尺

METAR: LIRS 150555Z 12005KT 9999 FEW018 18/16 Q1016 RMK SCT SCT080 VIS MIN 9000NE WIND THR03 12004KT WIND THR21 13007KT BLU

时间: 09:12 (07:12 UTC)

预报

该预报发布于1小时和48分钟前的05:24 UTC
预报有效从15日的 06点(UTC)到 15日的 15点(UTC)
风速6节,风向东南
能见度10公里或以上
少量云层高于2000英尺
散云层高于5000英尺
短暂存在
从 15日的 06点(UTC)到 15日的 12点(UTC)
多云层高于3000英尺
成为
从 15日的 07点(UTC)到 15日的 09点(UTC)
风速16节,风向
短暂存在
从 15日的 12点(UTC)到 15日的 15点(UTC)
能見度: 4000
少量云层高于1800英尺, 积雨云.
多云层高于3000英尺
阵雨

TAF: LIRS 150524Z 1506/1515 13006KT 9999 FEW020 SCT050 TEMPO 1506/1512 RA BKN030 BECMG 1507/1509 17016KT TEMPO 1512/1515 4000 SHRA FEW018CB BKN030

超过4000个机场的气象观测和天气预报(METAR&TAF报告)。

可查询的气象台以黄色和红色小点在地图上表示。

将鼠标移到小点上方,可查看气象台名称。

然后点击查看天气观测和预报。

如需切换地图:点击带黑十字的绿色按钮放大地图;点击带横线的绿色按钮缩小地图;或者点击绿色箭头查看邻近地区的地图。


METAR-TAF: